岡山グライダークラブ活動状況掲示板あなたは無料カウンター人目の訪問者です

岡山グライダークラブ
岡山市浦安南町639-1 岡南飛行場
 使用機:シャイベ式 SF25C型 ファルケ   JA2330
      ヴァレンティン式17E型 タイフーン  JA2342
 練習日:毎日曜日  クラブルーム:電話 086-265-1810
この掲示板は岡山グライダークラブの活動状況をお知らせする掲示板です。
!!!この掲示板は投稿規制をしています。!!!
クラブ関連各種情報は 岡山グライダークラブクラブルーム      を       .
  ブリーフイング情報は  岡山グライダークラブブリーフィングルーム  をご覧下さい。 .
※写真はクリックすると拡大して見ることが出来ます。
岡南飛行場へのアクセス等は 岡南飛行場管理事務所 をご覧ください。
クラブの ホームページ ができました。

 
03月22日
by OGC at 2020/3/23(月) 00:02:37 No.20200322235925  削除コメント
1024 x 768 x 97,158バイト
No.1

03月22日
本日の参加者
  会員      12名
  その他      0名


@本日の様子


METAR
RJBK 220000Z VRB02KT 20KM FEW025CU BKN/// 12/07 Q1012 A2990
RJOB 220000Z VRB03KT 9999 FEW025 BKN/// 13/07 Q1012
RJOT 220000Z 31004KT 270V010 9999 SCT035 BKN/// 16/06 Q1012
RJOA 220000Z 29006KT 9999 FEW030 BKN/// 15/09 Q1012
TAF
RJOB 212309Z 2200/2306 22008KT 9999 FEW020 BKN035
     BECMG 2205/2207 34007KT
     BECMG 2212/2215 30004KT
RJOT 212311Z 2200/2306 26010KT 9999 FEW020 BKN045
     BECMG 2209/2211 33004KT
RJOA 212306Z 2200/2306 24006KT 9999 FEW025 BKN045
     BECMG 2206/2208 33010KT


天候は曇りで、前線通過まではほぼ無風でソロ日和、通過後は横風に変わり横風練習日和でした。
訓練生はTGL練習を行い、1名初ソロにでました。

解散    17:20

1番機  10:25離陸 撤収機  16:45着陸 

SF25C JA2330 ファルケ     11Flt.3h35min  
17E   JA2342 タイフーン    00Flt.0h00min  
合計                    11Flt.3h35min

    << 戻る || ホームページ || 最新の掲示板へ